Time,TemperatureF,DewpointF,PressureIn,WindDirection,WindDirectionDegrees,WindSpeedMPH,WindSpeedGustMPH,Humidity,HourlyPrecipIn,Conditions,Clouds,dailyrainin,SoftwareType,DateUTC
2013-01-07 00:02:00,32.2,27.1,30.21,West,270,0.0,0.0,81,0.00,,,-99.99,open2300 version1.11,2013-01-07 05:02:00,
2013-01-07 00:05:00,32.2,27.1,30.21,West,270,0.0,0.0,81,0.00,,,-99.99,open2300 version1.11,2013-01-07 05:05:00,
2013-01-07 00:10:00,32.2,27.1,30.21,WNW,292,0.0,0.0,81,0.00,,,-99.99,open2300 version1.11,2013-01-07 05:10:00,
2013-01-07 00:15:00,32.2,27.1,30.21,West,270,0.0,0.0,81,0.00,,,-99.99,open2300 version1.11,2013-01-07 05:15:00,
2013-01-07 00:20:00,32.2,27.1,30.21,West,270,0.0,0.0,81,0.00,,,-99.99,open2300 version1.11,2013-01-07 05:20:00,
2013-01-07 00:25:00,32.2,27.1,30.21,West,270,0.0,0.0,81,0.00,,,-99.99,open2300 version1.11,2013-01-07 05:25:00,
2013-01-07 00:30:00,32.2,27.1,30.21,West,270,0.0,0.0,81,0.00,,,-99.99,open2300 version1.11,2013-01-07 05:30:00,
2013-01-07 00:35:00,32.2,27.1,30.21,West,270,0.0,0.0,81,0.00,,,-99.99,open2300 version1.11,2013-01-07 05:35:00,
2013-01-07 00:40:00,32.2,26.8,30.21,West,270,0.0,0.0,80,0.00,,,-99.99,open2300 version1.11,2013-01-07 05:40:00,
2013-01-07 00:45:00,32.2,26.8,30.21,West,270,0.0,0.0,80,0.00,,,-99.99,open2300 version1.11,2013-01-07 05:45:00,
2013-01-07 00:55:00,32.2,26.8,30.22,West,270,0.0,0.0,80,0.00,,,-99.99,open2300 version1.11,2013-01-07 05:55:00,
2013-01-07 01:00:00,32.2,26.8,30.22,West,270,0.0,0.0,80,0.00,,,-99.99,open2300 version1.11,2013-01-07 06:00:00,
2013-01-07 01:10:00,32.2,26.8,30.23,West,270,0.0,0.0,80,0.00,,,-99.99,open2300 version1.11,2013-01-07 06:10:00,
2013-01-07 01:20:00,32.0,26.6,30.23,West,270,0.0,0.0,80,0.00,,,-99.99,open2300 version1.11,2013-01-07 06:20:00,
2013-01-07 01:30:00,31.8,26.4,30.23,West,270,0.0,0.0,80,0.00,,,-99.99,open2300 version1.11,2013-01-07 06:30:00,
2013-01-07 01:35:00,31.8,26.4,30.23,West,270,0.0,0.0,80,0.00,,,-99.99,open2300 version1.11,2013-01-07 06:35:00,
2013-01-07 01:40:00,31.8,26.4,30.24,West,270,0.0,0.0,80,0.00,,,-99.99,open2300 version1.11,2013-01-07 06:40:00,
2013-01-07 01:45:00,31.8,26.4,30.24,West,270,0.0,0.0,80,0.00,,,-99.99,open2300 version1.11,2013-01-07 06:45:00,
2013-01-07 01:50:00,31.8,26.4,30.24,West,270,0.0,0.0,80,0.00,,,-99.99,open2300 version1.11,2013-01-07 06:50:00,
2013-01-07 01:55:00,31.8,26.4,30.24,West,270,0.0,0.0,80,0.00,,,-99.99,open2300 version1.11,2013-01-07 06:55:00,
2013-01-07 02:00:00,31.8,26.4,30.25,West,270,0.0,0.0,80,0.00,,,-99.99,open2300 version1.11,2013-01-07 07:00:00,
2013-01-07 02:05:00,31.8,26.4,30.25,West,270,0.0,0.0,80,0.00,,,-99.99,open2300 version1.11,2013-01-07 07:05:00,
2013-01-07 02:15:00,31.8,26.1,30.25,West,270,0.0,0.0,79,0.00,,,-99.99,open2300 version1.11,2013-01-07 07:15:00,
2013-01-07 02:20:00,31.8,26.1,30.25,West,270,0.0,0.0,79,0.00,,,-99.99,open2300 version1.11,2013-01-07 07:20:00,
2013-01-07 02:25:00,31.8,26.1,30.26,West,270,0.0,0.0,79,0.00,,,-99.99,open2300 version1.11,2013-01-07 07:25:00,
2013-01-07 02:30:00,31.8,26.1,30.26,West,270,0.0,0.0,79,0.00,,,-99.99,open2300 version1.11,2013-01-07 07:30:00,
2013-01-07 02:35:00,31.6,25.9,30.25,West,270,0.0,0.0,79,0.00,,,-99.99,open2300 version1.11,2013-01-07 07:35:00,
2013-01-07 02:40:00,31.6,25.9,30.26,West,270,0.0,0.0,79,0.00,,,-99.99,open2300 version1.11,2013-01-07 07:40:00,
2013-01-07 02:45:00,31.6,25.9,30.25,West,270,0.0,0.0,79,0.00,,,-99.99,open2300 version1.11,2013-01-07 07:45:00,
2013-01-07 02:50:00,31.6,25.9,30.26,West,270,0.0,0.0,79,0.00,,,-99.99,open2300 version1.11,2013-01-07 07:50:00,
2013-01-07 02:55:00,31.6,25.9,30.26,West,270,0.0,0.0,79,0.00,,,-99.99,open2300 version1.11,2013-01-07 07:55:00,
2013-01-07 03:00:00,31.6,25.9,30.26,West,270,0.0,0.0,79,0.00,,,-99.99,open2300 version1.11,2013-01-07 08:00:00,
2013-01-07 03:05:00,31.6,25.9,30.26,West,270,0.0,0.0,79,0.00,,,-99.99,open2300 version1.11,2013-01-07 08:05:00,
2013-01-07 03:10:00,31.6,25.9,30.26,West,270,0.0,0.0,79,0.00,,,-99.99,open2300 version1.11,2013-01-07 08:10:00,
2013-01-07 03:20:00,31.5,25.7,30.26,West,270,0.0,0.0,79,0.00,,,-99.99,open2300 version1.11,2013-01-07 08:20:00,
2013-01-07 03:25:00,31.5,25.7,30.26,West,270,0.0,0.0,79,0.00,,,-99.99,open2300 version1.11,2013-01-07 08:25:00,
2013-01-07 03:30:00,31.3,25.6,30.26,West,270,0.0,0.0,79,0.00,,,-99.99,open2300 version1.11,2013-01-07 08:30:00,
2013-01-07 03:35:00,31.3,25.6,30.26,West,270,0.0,0.0,79,0.00,,,-99.99,open2300 version1.11,2013-01-07 08:35:00,
2013-01-07 03:40:00,31.3,25.6,30.26,West,270,0.0,0.0,79,0.00,,,-99.99,open2300 version1.11,2013-01-07 08:40:00,
2013-01-07 03:45:00,31.1,25.4,30.26,West,270,0.0,0.0,79,0.00,,,-99.99,open2300 version1.11,2013-01-07 08:45:00,
2013-01-07 03:50:00,30.9,25.2,30.26,West,270,0.0,0.0,79,0.00,,,-99.99,open2300 version1.11,2013-01-07 08:50:00,
2013-01-07 04:00:00,30.9,25.5,30.25,West,270,0.0,0.0,80,0.00,,,-99.99,open2300 version1.11,2013-01-07 09:00:00,
2013-01-07 04:10:00,30.7,25.3,30.26,West,270,0.0,0.0,80,0.00,,,-99.99,open2300 version1.11,2013-01-07 09:10:00,
2013-01-07 04:15:00,30.7,25.3,30.26,West,270,0.0,0.0,80,0.00,,,-99.99,open2300 version1.11,2013-01-07 09:15:00,
2013-01-07 04:25:00,30.7,25.3,30.26,West,270,0.0,0.0,80,0.00,,,-99.99,open2300 version1.11,2013-01-07 09:25:00,
2013-01-07 04:30:00,30.7,25.3,30.26,West,270,0.0,0.0,80,0.00,,,-99.99,open2300 version1.11,2013-01-07 09:30:00,
2013-01-07 04:40:00,30.7,25.3,30.27,West,270,0.0,0.0,80,0.00,,,-99.99,open2300 version1.11,2013-01-07 09:40:00,
2013-01-07 04:50:00,30.7,25.3,30.27,West,270,0.0,0.0,80,0.00,,,-99.99,open2300 version1.11,2013-01-07 09:50:00,
2013-01-07 04:55:00,30.7,25.3,30.28,West,270,0.0,0.0,80,0.00,,,-99.99,open2300 version1.11,2013-01-07 09:55:00,
2013-01-07 05:05:00,30.7,25.3,30.26,West,270,0.0,0.0,80,0.00,,,-99.99,open2300 version1.11,2013-01-07 10:05:00,
2013-01-07 05:10:00,30.7,25.3,30.26,West,270,0.0,0.0,80,0.00,,,-99.99,open2300 version1.11,2013-01-07 10:10:00,
2013-01-07 05:20:00,30.7,25.3,30.27,West,270,0.0,0.0,80,0.00,,,-99.99,open2300 version1.11,2013-01-07 10:20:00,
2013-01-07 05:25:00,30.7,25.3,30.27,West,270,0.0,0.0,80,0.00,,,-99.99,open2300 version1.11,2013-01-07 10:25:00,
2013-01-07 05:35:00,30.7,25.3,30.27,West,270,0.0,0.0,80,0.00,,,-99.99,open2300 version1.11,2013-01-07 10:35:00,
2013-01-07 05:40:00,30.7,25.3,30.27,West,270,0.0,0.0,80,0.00,,,-99.99,open2300 version1.11,2013-01-07 10:40:00,
2013-01-07 05:50:00,30.7,25.3,30.27,West,270,0.0,0.0,80,0.00,,,-99.99,open2300 version1.11,2013-01-07 10:50:00,
2013-01-07 06:00:00,30.9,25.5,30.27,West,270,0.0,0.0,80,0.00,,,-99.99,open2300 version1.11,2013-01-07 11:00:00,
2013-01-07 06:05:00,30.9,25.5,30.27,West,270,0.0,0.0,80,0.00,,,-99.99,open2300 version1.11,2013-01-07 11:05:00,
2013-01-07 06:10:00,30.9,25.5,30.27,WSW,247,0.0,0.0,80,0.00,,,-99.99,open2300 version1.11,2013-01-07 11:10:00,
2013-01-07 06:15:00,30.9,25.2,30.27,WSW,247,0.0,0.0,79,0.00,,,-99.99,open2300 version1.11,2013-01-07 11:15:00,
2013-01-07 06:20:00,30.9,25.2,30.28,WSW,247,0.0,0.0,79,0.00,,,-99.99,open2300 version1.11,2013-01-07 11:20:00,
2013-01-07 06:30:00,30.9,25.2,30.28,WSW,247,0.0,0.0,79,0.00,,,-99.99,open2300 version1.11,2013-01-07 11:30:00,
2013-01-07 06:40:00,30.9,24.9,30.28,WSW,247,0.0,0.0,78,0.00,,,-99.99,open2300 version1.11,2013-01-07 11:40:00,
2013-01-07 06:50:00,30.7,24.7,30.29,WSW,247,0.0,0.0,78,0.00,,,-99.99,open2300 version1.11,2013-01-07 11:50:00,
2013-01-07 07:00:00,30.7,24.7,30.29,WSW,247,0.0,0.0,78,0.00,,,-99.99,open2300 version1.11,2013-01-07 12:00:00,
2013-01-07 07:05:00,30.7,24.7,30.29,WSW,247,0.0,0.0,78,0.00,,,-99.99,open2300 version1.11,2013-01-07 12:05:00,
2013-01-07 07:10:00,30.6,24.5,30.29,WSW,247,0.0,0.0,78,0.00,,,-99.99,open2300 version1.11,2013-01-07 12:10:00,
2013-01-07 07:15:00,30.4,24.3,30.29,WSW,247,0.0,0.0,78,0.00,,,-99.99,open2300 version1.11,2013-01-07 12:15:00,
2013-01-07 07:20:00,30.2,24.1,30.29,SE,135,0.0,0.0,78,0.00,,,-99.99,open2300 version1.11,2013-01-07 12:20:00,
2013-01-07 07:25:00,30.2,24.1,30.29,SE,135,0.0,0.0,78,0.00,,,-99.99,open2300 version1.11,2013-01-07 12:25:00,
2013-01-07 07:35:00,30.0,24.0,30.29,WSW,247,0.0,0.0,78,0.00,,,-99.99,open2300 version1.11,2013-01-07 12:35:00,
2013-01-07 07:40:00,30.0,24.0,30.29,WSW,247,0.0,0.0,78,0.00,,,-99.99,open2300 version1.11,2013-01-07 12:40:00,
2013-01-07 07:50:00,30.0,24.0,30.30,WSW,247,0.0,0.0,78,0.00,,,-99.99,open2300 version1.11,2013-01-07 12:50:00,
2013-01-07 07:55:00,30.0,24.0,30.30,WSW,247,0.0,0.0,78,0.00,,,-99.99,open2300 version1.11,2013-01-07 12:55:00,
2013-01-07 08:05:00,29.8,23.8,30.30,WSW,247,0.0,0.0,78,0.00,,,-99.99,open2300 version1.11,2013-01-07 13:05:00,
2013-01-07 08:10:00,29.7,23.6,30.30,WSW,247,0.0,0.0,78,0.00,,,-99.99,open2300 version1.11,2013-01-07 13:10:00,
2013-01-07 08:15:00,29.7,23.6,30.30,WSW,247,0.0,0.0,78,0.00,,,-99.99,open2300 version1.11,2013-01-07 13:15:00,
2013-01-07 08:20:00,29.5,23.4,30.30,WSW,247,0.0,0.0,78,0.00,,,-99.99,open2300 version1.11,2013-01-07 13:20:00,
2013-01-07 08:25:00,29.5,23.4,30.30,WSW,247,0.0,0.0,78,0.00,,,-99.99,open2300 version1.11,2013-01-07 13:25:00,
2013-01-07 08:30:00,29.5,23.4,30.30,WSW,247,0.0,0.0,78,0.00,,,-99.99,open2300 version1.11,2013-01-07 13:30:00,
2013-01-07 08:35:00,29.5,23.4,30.30,WSW,247,0.0,0.0,78,0.00,,,-99.99,open2300 version1.11,2013-01-07 13:35:00,
2013-01-07 08:40:00,29.5,23.4,30.30,WSW,247,0.0,0.0,78,0.00,,,-99.99,open2300 version1.11,2013-01-07 13:40:00,
2013-01-07 08:50:00,29.3,23.3,30.31,WSW,247,0.0,0.0,78,0.00,,,-99.99,open2300 version1.11,2013-01-07 13:50:00,
2013-01-07 09:00:00,29.1,23.1,30.31,SW,225,0.0,0.0,78,0.00,,,-99.99,open2300 version1.11,2013-01-07 14:00:00,
2013-01-07 09:10:00,29.1,23.1,30.31,SW,225,0.0,0.0,78,0.00,,,-99.99,open2300 version1.11,2013-01-07 14:10:00,
2013-01-07 09:15:00,29.1,23.1,30.31,South,180,0.0,0.0,78,0.00,,,-99.99,open2300 version1.11,2013-01-07 14:15:00,
2013-01-07 09:20:00,29.3,23.3,30.31,SE,135,0.0,0.0,78,0.00,,,-99.99,open2300 version1.11,2013-01-07 14:20:00,
2013-01-07 09:30:00,29.8,23.8,30.31,SE,135,0.0,0.0,78,0.00,,,-99.99,open2300 version1.11,2013-01-07 14:30:00,
2013-01-07 09:35:00,30.2,24.1,30.31,SE,135,0.0,0.0,78,0.00,,,-99.99,open2300 version1.11,2013-01-07 14:35:00,
2013-01-07 09:40:00,30.7,24.7,30.31,SW,225,0.1,2.9,78,0.00,,,-99.99,open2300 version1.11,2013-01-07 14:40:00,
2013-01-07 09:45:00,31.1,25.1,30.31,SW,229,0.9,4.9,78,0.00,,,-99.99,open2300 version1.11,2013-01-07 14:45:00,
2013-01-07 09:50:00,31.3,24.9,30.31,SW,225,0.1,1.8,77,0.00,,,-99.99,open2300 version1.11,2013-01-07 14:50:00,
2013-01-07 09:55:00,31.6,25.3,30.31,WSW,253,0.6,3.1,77,0.00,,,-99.99,open2300 version1.11,2013-01-07 14:55:00,
2013-01-07 10:00:00,31.8,25.4,30.31,SW,225,0.0,0.0,77,0.00,,,-99.99,open2300 version1.11,2013-01-07 15:00:00,
2013-01-07 10:05:00,32.2,25.8,30.31,SW,225,0.2,3.1,77,0.00,,,-99.99,open2300 version1.11,2013-01-07 15:05:00,
2013-01-07 10:15:00,32.5,25.8,30.31,WSW,244,2.2,7.8,76,0.00,,,-99.99,open2300 version1.11,2013-01-07 15:15:00,
2013-01-07 10:20:00,32.9,26.1,30.31,West,262,0.1,2.2,76,0.00,,,-99.99,open2300 version1.11,2013-01-07 15:20:00,
2013-01-07 10:25:00,33.1,26.3,30.31,WSW,250,1.0,6.3,76,0.00,,,-99.99,open2300 version1.11,2013-01-07 15:25:00,
2013-01-07 10:30:00,33.4,26.3,30.31,SSW,210,1.5,5.1,75,0.00,,,-99.99,open2300 version1.11,2013-01-07 15:30:00,
2013-01-07 10:40:00,33.8,26.6,30.31,WSW,241,1.8,7.4,75,0.00,,,-99.99,open2300 version1.11,2013-01-07 15:40:00,
2013-01-07 10:50:00,34.2,27.0,30.31,WSW,240,1.9,5.4,75,0.00,,,-99.99,open2300 version1.11,2013-01-07 15:50:00,
2013-01-07 11:00:00,34.7,27.2,30.30,WSW,247,2.1,6.5,74,0.00,,,-99.99,open2300 version1.11,2013-01-07 16:00:00,
2013-01-07 11:10:00,34.9,27.4,30.31,SW,234,2.1,9.2,74,0.00,,,-99.99,open2300 version1.11,2013-01-07 16:10:00,
2013-01-07 11:15:00,34.9,27.0,30.30,WSW,246,2.5,7.2,73,0.00,,,-99.99,open2300 version1.11,2013-01-07 16:15:00,
2013-01-07 11:20:00,34.9,27.0,30.30,WSW,245,2.6,6.5,73,0.00,,,-99.99,open2300 version1.11,2013-01-07 16:20:00,
2013-01-07 11:25:00,35.2,27.4,30.29,WSW,240,1.9,6.9,73,0.00,,,-99.99,open2300 version1.11,2013-01-07 16:25:00,
2013-01-07 11:35:00,35.4,27.6,30.28,WSW,250,3.2,8.3,73,0.00,,,-99.99,open2300 version1.11,2013-01-07 16:35:00,
2013-01-07 11:40:00,35.4,27.2,30.28,SW,235,3.5,8.3,72,0.00,,,-99.99,open2300 version1.11,2013-01-07 16:40:00,
2013-01-07 11:50:00,36.0,27.8,30.27,South,173,3.1,6.9,72,0.00,,,-99.99,open2300 version1.11,2013-01-07 16:50:00,
2013-01-07 11:55:00,36.1,28.0,30.27,South,182,1.9,6.7,72,0.00,,,-99.99,open2300 version1.11,2013-01-07 16:55:00,
2013-01-07 12:00:00,36.3,27.8,30.27,SSE,154,2.2,6.7,71,0.00,,,-99.99,open2300 version1.11,2013-01-07 17:00:00,
2013-01-07 12:05:00,36.5,28.0,30.26,WSW,247,0.7,5.4,71,0.00,,,-99.99,open2300 version1.11,2013-01-07 17:05:00,
2013-01-07 12:10:00,36.7,27.9,30.26,WSW,237,2.2,7.2,70,0.00,,,-99.99,open2300 version1.11,2013-01-07 17:10:00,
2013-01-07 12:15:00,36.7,27.9,30.26,South,186,2.6,6.7,70,0.00,,,-99.99,open2300 version1.11,2013-01-07 17:15:00,
2013-01-07 12:20:00,36.9,28.0,30.26,WSW,252,0.8,5.8,70,0.00,,,-99.99,open2300 version1.11,2013-01-07 17:20:00,
2013-01-07 12:25:00,37.0,28.2,30.25,WSW,250,3.9,8.7,70,0.00,,,-99.99,open2300 version1.11,2013-01-07 17:25:00,
2013-01-07 12:30:00,37.0,28.2,30.25,SSE,157,2.7,10.7,70,0.00,,,-99.99,open2300 version1.11,2013-01-07 17:30:00,
2013-01-07 12:35:00,37.0,28.2,30.24,WSW,239,2.7,7.8,70,0.00,,,-99.99,open2300 version1.11,2013-01-07 17:35:00,
2013-01-07 12:40:00,37.0,27.8,30.24,WSW,238,3.0,10.3,69,0.00,,,-99.99,open2300 version1.11,2013-01-07 17:40:00,
2013-01-07 12:45:00,36.9,27.7,30.24,WSW,237,3.8,9.6,69,0.00,,,-99.99,open2300 version1.11,2013-01-07 17:45:00,
2013-01-07 12:50:00,36.9,28.0,30.23,WSW,248,2.9,9.4,70,0.00,,,-99.99,open2300 version1.11,2013-01-07 17:50:00,
2013-01-07 12:55:00,37.0,27.8,30.23,SW,235,3.9,7.6,69,0.00,,,-99.99,open2300 version1.11,2013-01-07 17:55:00,
2013-01-07 13:00:00,37.0,27.8,30.23,WSW,247,2.5,6.0,69,0.00,,,-99.99,open2300 version1.11,2013-01-07 18:00:00,
2013-01-07 13:05:00,37.0,27.8,30.23,SW,236,2.3,6.5,69,0.00,,,-99.99,open2300 version1.11,2013-01-07 18:05:00,
2013-01-07 13:15:00,37.2,28.0,30.22,WSW,244,2.3,6.9,69,0.00,,,-99.99,open2300 version1.11,2013-01-07 18:15:00,
2013-01-07 13:20:00,37.2,28.0,30.22,WSW,246,2.1,7.6,69,0.00,,,-99.99,open2300 version1.11,2013-01-07 18:20:00,
2013-01-07 13:25:00,37.4,28.2,30.21,WSW,255,2.7,5.1,69,0.00,,,-99.99,open2300 version1.11,2013-01-07 18:25:00,
2013-01-07 13:30:00,37.6,28.0,30.21,WSW,245,2.3,8.5,68,0.00,,,-99.99,open2300 version1.11,2013-01-07 18:30:00,
2013-01-07 13:35:00,37.6,28.0,30.21,SW,233,3.4,7.4,68,0.00,,,-99.99,open2300 version1.11,2013-01-07 18:35:00,
2013-01-07 13:40:00,37.4,27.8,30.21,WSW,253,1.8,7.8,68,0.00,,,-99.99,open2300 version1.11,2013-01-07 18:40:00,
2013-01-07 13:45:00,37.4,27.8,30.20,SW,231,2.9,9.2,68,0.00,,,-99.99,open2300 version1.11,2013-01-07 18:45:00,
2013-01-07 13:50:00,37.2,27.3,30.20,South,173,4.1,8.3,67,0.00,,,-99.99,open2300 version1.11,2013-01-07 18:50:00,
2013-01-07 13:55:00,37.2,27.3,30.20,WSW,245,4.2,10.3,67,0.00,,,-99.99,open2300 version1.11,2013-01-07 18:55:00,
2013-01-07 14:00:00,37.0,27.1,30.19,WSW,252,1.8,7.4,67,0.00,,,-99.99,open2300 version1.11,2013-01-07 19:00:00,
2013-01-07 14:10:00,37.0,27.5,30.19,West,268,1.2,3.8,68,0.00,,,-99.99,open2300 version1.11,2013-01-07 19:10:00,
2013-01-07 14:15:00,37.0,27.5,30.19,ENE,77,1.4,9.2,68,0.00,,,-99.99,open2300 version1.11,2013-01-07 19:15:00,
2013-01-07 14:25:00,36.7,27.1,30.18,SW,215,3.6,15.2,68,0.00,,,-99.99,open2300 version1.11,2013-01-07 19:25:00,
2013-01-07 14:30:00,36.7,27.1,30.19,WSW,258,1.1,4.5,68,0.00,,,-99.99,open2300 version1.11,2013-01-07 19:30:00,
2013-01-07 14:35:00,36.7,27.1,30.18,West,263,1.3,5.1,68,0.00,,,-99.99,open2300 version1.11,2013-01-07 19:35:00,
2013-01-07 14:40:00,36.7,27.1,30.18,ESE,112,1.8,7.6,68,0.00,,,-99.99,open2300 version1.11,2013-01-07 19:40:00,
2013-01-07 14:45:00,36.7,27.1,30.18,SW,232,3.1,7.4,68,0.00,,,-99.99,open2300 version1.11,2013-01-07 19:45:00,
2013-01-07 14:50:00,36.3,26.8,30.18,SW,228,3.0,9.4,68,0.00,,,-99.99,open2300 version1.11,2013-01-07 19:50:00,
2013-01-07 14:55:00,36.3,26.8,30.18,SW,229,2.2,6.7,68,0.00,,,-99.99,open2300 version1.11,2013-01-07 19:55:00,
2013-01-07 15:00:00,36.1,26.6,30.18,SE,125,2.0,7.4,68,0.00,,,-99.99,open2300 version1.11,2013-01-07 20:00:00,
2013-01-07 15:05:00,36.0,26.4,30.17,SE,142,2.3,5.8,68,0.00,,,-99.99,open2300 version1.11,2013-01-07 20:05:00,
2013-01-07 15:10:00,35.8,26.6,30.17,South,171,1.4,6.3,69,0.00,,,-99.99,open2300 version1.11,2013-01-07 20:10:00,
2013-01-07 15:15:00,35.8,26.6,30.17,SSE,155,1.9,6.5,69,0.00,,,-99.99,open2300 version1.11,2013-01-07 20:15:00,
2013-01-07 15:25:00,35.2,26.1,30.17,South,171,1.8,9.8,69,0.00,,,-99.99,open2300 version1.11,2013-01-07 20:25:00,
2013-01-07 15:30:00,35.2,26.1,30.17,South,191,0.8,12.8,69,0.00,,,-99.99,open2300 version1.11,2013-01-07 20:30:00,
2013-01-07 15:35:00,34.9,25.7,30.17,SSE,151,1.2,8.1,69,0.00,,,-99.99,open2300 version1.11,2013-01-07 20:35:00,
2013-01-07 15:40:00,34.7,25.5,30.17,WSW,255,0.7,6.7,69,0.00,,,-99.99,open2300 version1.11,2013-01-07 20:40:00,
2013-01-07 15:45:00,34.5,25.7,30.17,North,0,0.1,2.2,70,0.00,,,-99.99,open2300 version1.11,2013-01-07 20:45:00,
2013-01-07 15:50:00,34.7,25.9,30.17,WNW,292,0.1,2.2,70,0.00,,,-99.99,open2300 version1.11,2013-01-07 20:50:00,
2013-01-07 15:55:00,34.7,25.9,30.17,SSW,202,0.2,3.4,70,0.00,,,-99.99,open2300 version1.11,2013-01-07 20:55:00,
2013-01-07 16:00:00,34.5,25.7,30.17,ENE,67,0.0,1.6,70,0.00,,,-99.99,open2300 version1.11,2013-01-07 21:00:00,
2013-01-07 16:10:00,34.3,25.5,30.16,West,266,1.1,6.0,70,0.00,,,-99.99,open2300 version1.11,2013-01-07 21:10:00,
2013-01-07 16:15:00,34.3,25.8,30.17,WSW,243,0.2,3.1,71,0.00,,,-99.99,open2300 version1.11,2013-01-07 21:15:00,
2013-01-07 16:20:00,34.2,25.7,30.17,WSW,247,0.0,0.0,71,0.00,,,-99.99,open2300 version1.11,2013-01-07 21:20:00,
2013-01-07 16:30:00,33.8,25.3,30.16,SSE,168,0.5,5.8,71,0.00,,,-99.99,open2300 version1.11,2013-01-07 21:30:00,
2013-01-07 16:35:00,33.6,25.1,30.16,South,180,0.1,2.0,71,0.00,,,-99.99,open2300 version1.11,2013-01-07 21:35:00,
2013-01-07 16:40:00,33.6,25.1,30.16,SW,236,0.2,4.9,71,0.00,,,-99.99,open2300 version1.11,2013-01-07 21:40:00,
2013-01-07 16:45:00,33.4,25.0,30.17,ESE,112,0.0,0.9,71,0.00,,,-99.99,open2300 version1.11,2013-01-07 21:45:00,
2013-01-07 16:50:00,33.1,25.0,30.17,WSW,238,0.5,8.1,72,0.00,,,-99.99,open2300 version1.11,2013-01-07 21:50:00,
2013-01-07 16:55:00,32.9,24.8,30.16,SW,225,0.0,1.1,72,0.00,,,-99.99,open2300 version1.11,2013-01-07 21:55:00,
2013-01-07 17:00:00,32.7,24.7,30.16,WNW,292,0.0,0.0,72,0.00,,,-99.99,open2300 version1.11,2013-01-07 22:00:00,
2013-01-07 17:05:00,32.5,24.5,30.16,WSW,247,0.0,0.7,72,0.00,,,-99.99,open2300 version1.11,2013-01-07 22:05:00,
2013-01-07 17:15:00,32.2,24.2,30.16,South,174,0.3,2.7,72,0.00,,,-99.99,open2300 version1.11,2013-01-07 22:15:00,
2013-01-07 17:20:00,31.8,24.1,30.16,SE,135,0.0,0.0,73,0.00,,,-99.99,open2300 version1.11,2013-01-07 22:20:00,
2013-01-07 17:25:00,31.6,24.0,30.16,WSW,247,0.2,2.5,73,0.00,,,-99.99,open2300 version1.11,2013-01-07 22:25:00,
2013-01-07 17:30:00,31.6,24.0,30.15,ESE,123,0.3,5.8,73,0.00,,,-99.99,open2300 version1.11,2013-01-07 22:30:00,
2013-01-07 17:35:00,31.3,23.6,30.14,ESE,112,0.2,3.6,73,0.00,,,-99.99,open2300 version1.11,2013-01-07 22:35:00,
2013-01-07 17:40:00,31.1,23.8,30.15,SSW,202,0.0,0.0,74,0.00,,,-99.99,open2300 version1.11,2013-01-07 22:40:00,
2013-01-07 17:45:00,30.9,23.6,30.14,East,101,0.2,5.4,74,0.00,,,-99.99,open2300 version1.11,2013-01-07 22:45:00,
2013-01-07 17:55:00,30.6,23.5,30.15,SW,225,0.0,0.0,75,0.00,,,-99.99,open2300 version1.11,2013-01-07 22:55:00,
2013-01-07 18:00:00,30.4,23.4,30.15,WNW,292,0.0,0.0,75,0.00,,,-99.99,open2300 version1.11,2013-01-07 23:00:00,
2013-01-07 18:05:00,30.4,23.4,30.15,SW,225,0.0,0.0,75,0.00,,,-99.99,open2300 version1.11,2013-01-07 23:05:00,
2013-01-07 18:10:00,30.4,23.4,30.15,SW,225,0.0,0.0,75,0.00,,,-99.99,open2300 version1.11,2013-01-07 23:10:00,
2013-01-07 18:20:00,30.0,23.3,30.15,SE,135,0.0,0.0,76,0.00,,,-99.99,open2300 version1.11,2013-01-07 23:20:00,
2013-01-07 18:25:00,30.0,23.3,30.15,West,270,0.0,0.0,76,0.00,,,-99.99,open2300 version1.11,2013-01-07 23:25:00,
2013-01-07 18:30:00,30.0,23.3,30.15,SE,135,0.1,3.1,76,0.00,,,-99.99,open2300 version1.11,2013-01-07 23:30:00,
2013-01-07 18:35:00,30.0,23.3,30.15,SW,225,0.0,1.3,76,0.00,,,-99.99,open2300 version1.11,2013-01-07 23:35:00,
2013-01-07 18:40:00,29.8,23.1,30.15,NE,45,0.0,1.1,76,0.00,,,-99.99,open2300 version1.11,2013-01-07 23:40:00,
2013-01-07 18:45:00,29.8,23.5,30.15,SSE,157,0.0,0.9,77,0.00,,,-99.99,open2300 version1.11,2013-01-07 23:45:00,
2013-01-07 18:50:00,29.7,23.3,30.14,South,191,0.2,4.2,77,0.00,,,-99.99,open2300 version1.11,2013-01-07 23:50:00,
2013-01-07 18:55:00,29.7,23.3,30.14,South,180,0.3,8.5,77,0.00,,,-99.99,open2300 version1.11,2013-01-07 23:55:00,
2013-01-07 19:00:00,29.5,23.1,30.14,SSE,168,0.2,4.9,77,0.00,,,-99.99,open2300 version1.11,2013-01-08 00:00:00,
2013-01-07 19:05:00,29.5,23.1,30.13,SE,139,0.6,8.5,77,0.00,,,-99.99,open2300 version1.11,2013-01-08 00:05:00,
2013-01-07 19:15:00,29.3,23.3,30.13,WSW,255,0.2,2.5,78,0.00,,,-99.99,open2300 version1.11,2013-01-08 00:15:00,
2013-01-07 19:20:00,29.5,23.4,30.14,SSE,157,0.7,14.5,78,0.00,,,-99.99,open2300 version1.11,2013-01-08 00:20:00,
2013-01-07 19:25:00,29.3,23.3,30.15,SE,135,0.0,0.0,78,0.00,,,-99.99,open2300 version1.11,2013-01-08 00:25:00,
2013-01-07 19:30:00,29.3,23.3,30.15,WSW,247,0.0,0.0,78,0.00,,,-99.99,open2300 version1.11,2013-01-08 00:30:00,
2013-01-07 19:35:00,29.3,23.3,30.15,SE,135,0.2,5.1,78,0.00,,,-99.99,open2300 version1.11,2013-01-08 00:35:00,
2013-01-07 19:40:00,29.1,23.1,30.14,West,270,0.0,0.0,78,0.00,,,-99.99,open2300 version1.11,2013-01-08 00:40:00,
2013-01-07 19:50:00,29.1,23.4,30.13,East,101,0.1,2.9,79,0.00,,,-99.99,open2300 version1.11,2013-01-08 00:50:00,
2013-01-07 19:55:00,29.1,23.4,30.13,SE,135,0.0,1.3,79,0.00,,,-99.99,open2300 version1.11,2013-01-08 00:55:00,
2013-01-07 20:05:00,29.1,23.4,30.13,South,180,0.2,3.1,79,0.00,,,-99.99,open2300 version1.11,2013-01-08 01:05:00,
2013-01-07 20:10:00,28.9,23.2,30.12,SE,135,0.3,6.9,79,0.00,,,-99.99,open2300 version1.11,2013-01-08 01:10:00,
2013-01-07 20:20:00,28.9,23.2,30.12,SSE,157,0.1,2.0,79,0.00,,,-99.99,open2300 version1.11,2013-01-08 01:20:00,
2013-01-07 20:25:00,28.9,23.2,30.13,East,90,0.0,0.0,79,0.00,,,-99.99,open2300 version1.11,2013-01-08 01:25:00,
2013-01-07 20:30:00,28.9,23.2,30.12,ENE,78,0.2,6.7,79,0.00,,,-99.99,open2300 version1.11,2013-01-08 01:30:00,
2013-01-07 20:35:00,28.9,23.2,30.12,SSE,157,0.1,2.5,79,0.00,,,-99.99,open2300 version1.11,2013-01-08 01:35:00,
2013-01-07 20:40:00,28.9,23.2,30.11,SE,146,0.2,4.9,79,0.00,,,-99.99,open2300 version1.11,2013-01-08 01:40:00,
2013-01-07 20:45:00,28.8,23.0,30.11,NNE,22,0.1,3.4,79,0.00,,,-99.99,open2300 version1.11,2013-01-08 01:45:00,
2013-01-07 20:55:00,28.9,23.2,30.11,SE,135,0.0,0.9,79,0.00,,,-99.99,open2300 version1.11,2013-01-08 01:55:00,
2013-01-07 21:00:00,28.8,23.0,30.11,SE,146,0.2,4.9,79,0.00,,,-99.99,open2300 version1.11,2013-01-08 02:00:00,
2013-01-07 21:05:00,28.8,23.0,30.11,SE,135,0.0,1.3,79,0.00,,,-99.99,open2300 version1.11,2013-01-08 02:05:00,
2013-01-07 21:10:00,28.8,23.0,30.09,SSW,193,0.5,5.6,79,0.00,,,-99.99,open2300 version1.11,2013-01-08 02:10:00,
2013-01-07 21:15:00,28.8,23.0,30.10,ESE,112,0.2,2.7,79,0.00,,,-99.99,open2300 version1.11,2013-01-08 02:15:00,
2013-01-07 21:25:00,28.9,23.2,30.11,WNW,292,0.0,0.9,79,0.00,,,-99.99,open2300 version1.11,2013-01-08 02:25:00,
2013-01-07 21:30:00,28.8,23.0,30.10,West,270,0.0,0.0,79,0.00,,,-99.99,open2300 version1.11,2013-01-08 02:30:00,
2013-01-07 21:35:00,28.8,23.0,30.11,WSW,247,0.0,0.0,79,0.00,,,-99.99,open2300 version1.11,2013-01-08 02:35:00,
2013-01-07 21:40:00,28.8,23.0,30.11,SW,225,0.0,0.0,79,0.00,,,-99.99,open2300 version1.11,2013-01-08 02:40:00,
2013-01-07 21:45:00,28.8,23.0,30.10,SW,225,0.0,0.0,79,0.00,,,-99.99,open2300 version1.11,2013-01-08 02:45:00,
2013-01-07 21:50:00,28.8,23.0,30.10,SSW,202,0.0,0.0,79,0.00,,,-99.99,open2300 version1.11,2013-01-08 02:50:00,
2013-01-07 21:55:00,28.6,22.9,30.11,East,90,0.0,1.3,79,0.00,,,-99.99,open2300 version1.11,2013-01-08 02:55:00,
2013-01-07 22:00:00,28.6,22.9,30.10,West,270,0.0,0.0,79,0.00,,,-99.99,open2300 version1.11,2013-01-08 03:00:00,
2013-01-07 22:05:00,28.6,22.9,30.10,ESE,112,0.0,0.0,79,0.00,,,-99.99,open2300 version1.11,2013-01-08 03:05:00,
2013-01-07 22:15:00,28.6,22.9,30.11,SW,225,0.0,0.2,79,0.00,,,-99.99,open2300 version1.11,2013-01-08 03:15:00,
2013-01-07 22:20:00,28.6,22.9,30.11,SW,225,0.0,0.0,79,0.00,,,-99.99,open2300 version1.11,2013-01-08 03:20:00,
2013-01-07 22:25:00,28.6,22.9,30.10,North,0,0.1,1.8,79,0.00,,,-99.99,open2300 version1.11,2013-01-08 03:25:00,
2013-01-07 22:30:00,28.6,22.9,30.10,SW,217,0.2,2.7,79,0.00,,,-99.99,open2300 version1.11,2013-01-08 03:30:00,
2013-01-07 22:35:00,28.6,22.9,30.11,WSW,247,0.0,0.0,79,0.00,,,-99.99,open2300 version1.11,2013-01-08 03:35:00,
2013-01-07 22:45:00,28.6,22.9,30.11,WSW,247,0.0,0.7,79,0.00,,,-99.99,open2300 version1.11,2013-01-08 03:45:00,
2013-01-07 22:55:00,28.6,22.9,30.10,West,270,0.0,1.1,79,0.00,,,-99.99,open2300 version1.11,2013-01-08 03:55:00,
2013-01-07 23:00:00,28.6,22.9,30.10,ESE,112,0.1,2.2,79,0.00,,,-99.99,open2300 version1.11,2013-01-08 04:00:00,
2013-01-07 23:05:00,28.6,22.9,30.11,WSW,247,0.0,0.0,79,0.00,,,-99.99,open2300 version1.11,2013-01-08 04:05:00,
2013-01-07 23:10:00,28.6,22.9,30.11,SW,225,0.0,0.0,79,0.00,,,-99.99,open2300 version1.11,2013-01-08 04:10:00,
2013-01-07 23:20:00,28.6,22.9,30.11,SW,225,0.0,0.0,79,0.00,,,-99.99,open2300 version1.11,2013-01-08 04:20:00,
2013-01-07 23:25:00,28.6,22.9,30.11,SW,225,0.0,0.0,79,0.00,,,-99.99,open2300 version1.11,2013-01-08 04:25:00,
2013-01-07 23:35:00,28.4,22.7,30.11,SW,225,0.0,0.0,79,0.00,,,-99.99,open2300 version1.11,2013-01-08 04:35:00,
2013-01-07 23:45:00,28.2,22.5,30.11,SW,225,0.0,0.0,79,0.00,,,-99.99,open2300 version1.11,2013-01-08 04:45:00,
2013-01-07 23:50:00,28.2,22.5,30.11,SW,225,0.0,0.0,79,0.00,,,-99.99,open2300 version1.11,2013-01-08 04:50:00,
2013-01-07 23:55:00,28.2,22.8,30.11,West,270,0.0,0.0,80,0.00,,,-99.99,open2300 version1.11,2013-01-08 04:55:00,